createdAt,value
2023-05-12T00:03:38.853Z,1013.26
2023-05-12T00:08:46.042Z,1013.19
2023-05-12T00:13:53.176Z,1013.14
2023-05-12T00:19:00.356Z,1013.13
2023-05-12T00:24:07.632Z,1013.16
2023-05-12T00:29:14.803Z,1013.17
2023-05-12T00:34:22.049Z,1013.06
2023-05-12T00:39:29.309Z,1013.08
2023-05-12T00:44:36.461Z,1013.06
2023-05-12T00:49:43.654Z,1013.12
2023-05-12T00:54:50.851Z,1013.13
2023-05-12T00:59:58.026Z,1013.11
2023-05-12T01:05:05.203Z,1013.07
2023-05-12T01:10:12.440Z,1013.11
2023-05-12T01:15:19.681Z,1013.13
2023-05-12T01:20:26.930Z,1013.14
2023-05-12T01:25:34.179Z,1013.10
2023-05-12T01:30:41.335Z,1013.06
2023-05-12T01:35:48.605Z,1013.05
2023-05-12T01:40:55.791Z,1013.05
2023-05-12T01:46:03.000Z,1013.06
2023-05-12T01:51:10.127Z,1013.06
2023-05-12T01:56:17.477Z,1013.08
2023-05-12T02:01:24.830Z,1013.08
2023-05-12T02:06:31.878Z,1013.09
2023-05-12T02:11:39.150Z,1013.12
2023-05-12T02:16:46.283Z,1013.08
2023-05-12T02:21:54.351Z,1013.08
2023-05-12T02:27:01.628Z,1013.07
2023-05-12T02:32:08.980Z,1013.00
2023-05-12T02:37:16.017Z,1013.02
2023-05-12T02:42:23.428Z,1013.00
2023-05-12T02:47:30.479Z,1012.99
2023-05-12T02:52:37.679Z,1012.96
2023-05-12T02:57:44.904Z,1012.94
2023-05-12T03:02:52.589Z,1012.93
2023-05-12T03:07:59.728Z,1012.92
2023-05-12T03:13:07.309Z,1012.96
2023-05-12T03:18:14.687Z,1012.97
2023-05-12T03:23:21.896Z,1012.97
2023-05-12T03:28:29.169Z,1012.97
2023-05-12T03:33:36.400Z,1012.97
2023-05-12T03:38:43.644Z,1012.99
2023-05-12T03:43:51.039Z,1012.93
2023-05-12T03:48:58.127Z,1012.87
2023-05-12T03:54:05.351Z,1012.82
2023-05-12T03:59:12.606Z,1012.85
2023-05-12T04:04:19.895Z,1012.84
2023-05-12T04:09:27.040Z,1012.84
2023-05-12T04:14:42.393Z,1012.82
2023-05-12T04:19:41.419Z,1012.83
2023-05-12T04:24:48.603Z,1012.86
2023-05-12T04:29:55.822Z,1012.90
2023-05-12T04:35:03.001Z,1012.96
2023-05-12T04:40:10.165Z,1013.02
2023-05-12T04:45:17.410Z,1013.01
2023-05-12T04:50:24.536Z,1013.02
2023-05-12T04:55:31.951Z,1013.01
2023-05-12T05:00:39.191Z,1013.11
2023-05-12T05:05:46.380Z,1013.10
2023-05-12T05:10:53.555Z,1013.12
2023-05-12T05:16:01.959Z,1013.11
2023-05-12T05:21:09.049Z,1013.07
2023-05-12T05:26:16.217Z,1013.12
2023-05-12T05:31:23.492Z,1013.11
2023-05-12T05:36:31.702Z,1013.14
2023-05-12T05:41:37.788Z,1013.18
2023-05-12T05:46:45.015Z,1013.19
2023-05-12T05:51:52.173Z,1013.17
2023-05-12T05:56:59.451Z,1013.27
2023-05-12T06:02:06.731Z,1013.22
2023-05-12T06:07:13.828Z,1013.29
2023-05-12T06:12:21.015Z,1013.25
2023-05-12T06:17:28.737Z,1013.23
2023-05-12T06:22:35.400Z,1013.29
2023-05-12T06:27:42.563Z,1013.31
2023-05-12T06:32:49.962Z,1013.32
2023-05-12T06:37:57.150Z,1013.34
2023-05-12T06:43:04.544Z,1013.37
2023-05-12T06:48:11.777Z,1013.31
2023-05-12T06:53:19.885Z,1013.33
2023-05-12T06:58:27.124Z,1013.27
2023-05-12T07:03:34.428Z,1013.20
2023-05-12T07:08:41.544Z,1013.19
2023-05-12T07:13:48.935Z,1013.12
2023-05-12T07:18:56.247Z,1013.22
2023-05-12T07:24:03.301Z,1013.20
2023-05-12T07:29:12.770Z,1013.11
2023-05-12T07:34:17.898Z,1013.09
2023-05-12T07:39:25.117Z,1013.05
2023-05-12T07:44:32.366Z,1013.04
2023-05-12T07:49:39.641Z,1013.05
2023-05-12T07:54:46.831Z,1013.06
2023-05-12T07:59:53.966Z,1013.00
2023-05-12T08:05:01.406Z,1012.94
2023-05-12T08:10:08.385Z,1012.97
2023-05-12T08:15:15.627Z,1012.90
2023-05-12T08:20:23.193Z,1012.96
2023-05-12T08:25:30.008Z,1012.94
2023-05-12T08:30:37.225Z,1013.03
2023-05-12T08:35:44.477Z,1013.05
2023-05-12T08:40:51.563Z,1013.07
2023-05-12T08:45:58.771Z,1013.08
2023-05-12T08:51:06.318Z,1013.10
2023-05-12T09:01:21.014Z,1013.15
2023-05-12T09:06:28.404Z,1013.11
2023-05-12T09:11:35.356Z,1013.12
2023-05-12T09:16:42.794Z,1013.05
2023-05-12T09:21:49.954Z,1013.06
2023-05-12T09:26:57.123Z,1013.06
2023-05-12T09:32:04.383Z,1013.06
2023-05-12T09:37:13.235Z,1013.06
2023-05-12T09:42:18.700Z,1013.10
2023-05-12T09:47:25.926Z,1013.02
2023-05-12T09:52:33.214Z,1013.03
2023-05-12T09:57:40.237Z,1012.99
2023-05-12T10:02:47.689Z,1013.06
2023-05-12T10:07:59.223Z,1012.97
2023-05-12T10:13:06.624Z,1013.02
2023-05-12T10:18:14.959Z,1013.01
2023-05-12T10:23:22.237Z,1012.99
2023-05-12T10:28:29.267Z,1012.96
2023-05-12T10:33:36.475Z,1012.88
2023-05-12T10:38:43.698Z,1012.91
2023-05-12T10:43:50.816Z,1012.89
2023-05-12T10:48:58.033Z,1012.87
2023-05-12T10:54:05.292Z,1012.81
2023-05-12T10:59:12.871Z,1012.76
2023-05-12T11:04:20.329Z,1012.80
2023-05-12T11:09:27.336Z,1012.82
2023-05-12T11:14:33.998Z,1012.82
2023-05-12T11:19:41.231Z,1012.87
2023-05-12T11:24:48.450Z,1012.82
2023-05-12T11:29:55.627Z,1012.75
2023-05-12T11:35:02.776Z,1012.76
2023-05-12T11:40:10.065Z,1012.79
2023-05-12T11:45:17.326Z,1012.72
2023-05-12T11:50:24.480Z,1012.76
2023-05-12T11:55:31.883Z,1012.77
2023-05-12T12:00:39.014Z,1012.77
2023-05-12T12:05:46.271Z,1012.74
2023-05-12T12:10:53.556Z,1012.77
2023-05-12T12:16:00.716Z,1012.65
2023-05-12T12:21:07.867Z,1012.70
2023-05-12T12:26:15.310Z,1012.65
2023-05-12T12:31:22.348Z,1012.66
2023-05-12T12:36:29.577Z,1012.57
2023-05-12T12:41:36.959Z,1012.52
2023-05-12T12:46:44.106Z,1012.55
2023-05-12T12:51:51.361Z,1012.46
2023-05-12T12:56:58.569Z,1012.49
2023-05-12T13:02:05.817Z,1012.45
2023-05-12T13:07:13.023Z,1012.56
2023-05-12T13:12:20.273Z,1012.58
2023-05-12T13:17:27.598Z,1012.49
2023-05-12T13:22:34.698Z,1012.53
2023-05-12T13:27:41.964Z,1012.38
2023-05-12T13:32:49.181Z,1012.35
2023-05-12T13:37:56.358Z,1012.25
2023-05-12T13:43:03.658Z,1012.19
2023-05-12T13:48:10.859Z,1012.20
2023-05-12T13:53:17.996Z,1012.20
2023-05-12T13:58:25.455Z,1012.10
2023-05-12T14:03:32.477Z,1012.04
2023-05-12T14:08:39.660Z,1012.07
2023-05-12T14:13:46.950Z,1012.07
2023-05-12T14:18:54.231Z,1012.10
2023-05-12T14:24:01.317Z,1012.09
2023-05-12T14:29:11.405Z,1012.19
2023-05-12T14:34:18.550Z,1012.17
2023-05-12T14:39:25.788Z,1012.15
2023-05-12T14:44:33.016Z,1012.09
2023-05-12T14:49:40.127Z,1011.98
2023-05-12T14:54:47.326Z,1012.00
2023-05-12T14:59:54.528Z,1011.98
2023-05-12T15:05:01.781Z,1012.02
2023-05-12T15:10:09.141Z,1011.97
2023-05-12T15:15:16.510Z,1012.03
2023-05-12T15:20:59.556Z,1011.95
2023-05-12T15:28:11.155Z,1011.96
2023-05-12T15:32:38.091Z,1011.97
2023-05-12T15:38:47.996Z,1011.95
2023-05-12T15:44:14.451Z,1011.99
2023-05-12T15:49:57.062Z,1012.03
2023-05-12T15:58:00.620Z,1012.03
2023-05-12T16:04:27.036Z,1012.06
2023-05-12T16:10:27.594Z,1012.13
2023-05-12T16:15:52.099Z,1012.16
2023-05-12T16:21:36.431Z,1012.14
2023-05-12T16:26:53.810Z,1012.15
2023-05-12T16:32:01.207Z,1012.09
2023-05-12T16:37:08.826Z,1012.05
2023-05-12T16:42:16.833Z,1012.02
2023-05-12T16:47:28.167Z,1012.09
2023-05-12T16:52:42.030Z,1012.07
2023-05-12T16:59:01.240Z,1012.11
2023-05-12T17:03:53.115Z,1012.13
2023-05-12T17:09:00.620Z,1012.17
2023-05-12T17:14:08.182Z,1012.20
2023-05-12T17:19:16.137Z,1012.23
2023-05-12T17:24:23.794Z,1012.23
2023-05-12T17:29:31.455Z,1012.24
2023-05-12T17:34:39.126Z,1012.24
2023-05-12T17:39:46.808Z,1012.30
2023-05-12T17:44:57.648Z,1012.33
2023-05-12T17:50:08.809Z,1012.35
2023-05-12T17:55:13.808Z,1012.38
2023-05-12T18:00:21.807Z,1012.46
2023-05-12T18:05:29.421Z,1012.44
2023-05-12T18:10:37.255Z,1012.51
2023-05-12T18:15:44.980Z,1012.56
2023-05-12T18:20:53.268Z,1012.52
2023-05-12T18:26:01.104Z,1012.55
2023-05-12T18:31:16.001Z,1012.57
2023-05-12T18:36:16.529Z,1012.59
2023-05-12T18:41:24.146Z,1012.57
2023-05-12T18:46:32.214Z,1012.60
2023-05-12T18:51:40.107Z,1012.67
2023-05-12T18:56:47.719Z,1012.74
2023-05-12T19:01:55.585Z,1012.79
2023-05-12T19:07:03.323Z,1012.80
2023-05-12T19:12:11.270Z,1012.88
2023-05-12T19:17:19.119Z,1012.93
2023-05-12T19:22:27.007Z,1012.96
2023-05-12T19:27:34.989Z,1012.99
2023-05-12T19:32:42.850Z,1013.08
2023-05-12T19:37:50.675Z,1013.11
2023-05-12T19:42:58.758Z,1013.19
2023-05-12T19:48:06.792Z,1013.23
2023-05-12T19:53:50.179Z,1013.28
2023-05-12T19:58:58.021Z,1013.33
2023-05-12T20:04:06.054Z,1013.37
2023-05-12T20:09:13.849Z,1013.38
2023-05-12T20:14:21.665Z,1013.44
2023-05-12T20:19:29.499Z,1013.46
2023-05-12T20:24:37.407Z,1013.51
2023-05-12T20:29:45.218Z,1013.51
2023-05-12T20:34:53.419Z,1013.53
2023-05-12T20:40:01.060Z,1013.53
2023-05-12T20:45:08.806Z,1013.60
2023-05-12T20:50:16.628Z,1013.65
2023-05-12T20:55:24.205Z,1013.69
2023-05-12T21:00:31.461Z,1013.64
2023-05-12T21:05:39.043Z,1013.69
2023-05-12T21:10:46.526Z,1013.65
2023-05-12T21:15:53.937Z,1013.67
2023-05-12T21:21:01.338Z,1013.66
2023-05-12T21:26:08.581Z,1013.71
2023-05-12T21:31:17.474Z,1013.70
2023-05-12T21:36:25.462Z,1013.77
2023-05-12T21:41:32.689Z,1013.80
2023-05-12T21:46:42.098Z,1013.78
2023-05-12T21:51:55.348Z,1013.82
2023-05-12T21:57:02.781Z,1013.79
2023-05-12T22:02:10.058Z,1013.84
2023-05-12T22:07:18.350Z,1013.84
2023-05-12T22:12:25.740Z,1013.88
2023-05-12T22:17:37.018Z,1013.89
2023-05-12T22:22:44.442Z,1013.94
2023-05-12T22:27:51.640Z,1014.00
2023-05-12T22:32:58.890Z,1014.00
2023-05-12T22:38:06.159Z,1014.01
2023-05-12T22:43:20.494Z,1014.05
2023-05-12T22:49:08.815Z,1013.96
2023-05-12T22:54:55.947Z,1014.01
2023-05-12T23:00:26.165Z,1013.98
2023-05-12T23:05:30.476Z,1013.96
2023-05-12T23:11:25.327Z,1014.01
2023-05-12T23:18:21.158Z,1014.02
2023-05-12T23:23:23.039Z,1013.97
2023-05-12T23:31:03.058Z,1014.02
2023-05-12T23:42:42.436Z,1013.97
2023-05-12T23:48:41.707Z,1014.00
2023-05-12T23:56:45.717Z,1013.97
